Time;durP1;ratioP1;P1;durP2;ratioP2;P2;SDS_P1;SDS_P2;PMS_P1;PMS_P2;Temp;Humidity;BMP_temperature;BMP_pressure;BME280_temperature;BME280_humidity;BME280_pressure;Samples;Min_cycle;Max_cycle;Signal;HPM_P1;HPM_P2
2024/02/12 00:00:18;;;;;;;65.20;42.13;;;8.60;99.90;;;;;;5158799;27;20469;-77
2024/02/12 00:02:47;;;;;;;66.80;43.60;;;8.60;99.90;;;;;;5158809;27;20440;-78
2024/02/12 00:05:15;;;;;;;69.93;44.50;;;8.60;99.90;;;;;;5160273;27;20847;-77
2024/02/12 00:07:44;;;;;;;62.80;42.83;;;8.60;99.90;;;;;;5159130;27;20445;-78
2024/02/12 00:10:12;;;;;;;63.60;42.63;;;8.60;99.90;;;;;;5158998;27;20493;-78
2024/02/12 00:12:41;;;;;;;65.87;44.03;;;8.60;99.90;;;;;;5159500;27;21001;-77
2024/02/12 00:15:12;;;;;;;72.50;44.47;;;8.60;99.90;;;;;;5158312;27;21020;-76
2024/02/12 00:17:41;;;;;;;67.87;45.10;;;8.60;99.90;;;;;;5176543;27;20413;-76
2024/02/12 00:20:12;;;;;;;72.77;44.70;;;8.60;99.90;;;;;;5176461;27;20532;-77
2024/02/12 00:22:41;;;;;;;60.63;42.77;;;8.60;99.90;;;;;;5157765;27;20433;-76
2024/02/12 00:25:12;;;;;;;69.23;44.70;;;8.60;99.90;;;;;;5176455;27;20476;-76
2024/02/12 00:27:41;;;;;;;66.33;42.77;;;8.60;99.90;;;;;;5157692;27;20857;-76
2024/02/12 00:30:12;;;;;;;64.20;43.13;;;8.60;99.90;;;;;;5157490;27;20975;-76
2024/02/12 00:32:42;;;;;;;63.93;43.73;;;8.60;99.90;;;;;;5157579;27;20435;-76
2024/02/12 00:35:10;;;;;;;59.70;42.30;;;8.60;99.90;;;;;;5157389;27;20510;-76
2024/02/12 00:37:39;;;;;;;67.10;42.53;;;8.60;99.90;;;;;;5157474;27;20475;-76
2024/02/12 00:40:08;;;;;;;66.97;41.80;;;8.60;99.90;;;;;;5157478;27;20444;-75
2024/02/12 00:42:38;;;;;;;63.20;42.63;;;8.60;99.90;;;;;;5158337;27;20440;-77
2024/02/12 00:45:08;;;;;;;71.83;42.50;;;8.60;99.90;;;;;;5157637;27;20493;-78
2024/02/12 00:47:39;;;;;;;66.30;43.60;;;8.60;99.90;;;;;;5157798;27;20470;-76
2024/02/12 00:50:10;;;;;;;68.87;43.10;;;8.60;99.90;;;;;;5157458;27;20468;-77
2024/02/12 00:52:38;;;;;;;68.20;44.20;;;8.60;99.90;;;;;;5157304;27;20957;-76
2024/02/12 00:55:08;;;;;;;61.90;42.30;;;8.60;99.90;;;;;;5157016;27;20476;-77
2024/02/12 00:57:37;;;;;;;60.37;42.07;;;8.60;99.90;;;;;;5157248;27;20483;-78
2024/02/12 01:00:11;;;;;;;61.87;42.00;;;8.60;99.90;;;;;;5175841;27;20496;-75
2024/02/12 01:02:41;;;;;;;66.17;42.37;;;8.60;99.90;;;;;;5176677;27;20500;-75
2024/02/12 01:05:10;;;;;;;63.93;42.47;;;8.60;99.90;;;;;;5158493;27;20513;-76
2024/02/12 01:07:40;;;;;;;64.13;41.87;;;8.60;99.90;;;;;;5157926;27;20447;-78
2024/02/12 01:10:09;;;;;;;60.97;41.90;;;8.60;99.90;;;;;;5158485;27;20816;-76
2024/02/12 01:12:39;;;;;;;64.03;42.00;;;8.60;99.90;;;;;;5175688;27;20959;-75
2024/02/12 01:15:09;;;;;;;64.10;41.40;;;8.60;99.90;;;;;;5156926;27;21117;-76
2024/02/12 01:17:40;;;;;;;64.77;40.97;;;8.60;99.90;;;;;;5157247;27;20441;-77
2024/02/12 01:20:17;;;;;;;63.33;40.53;;;8.60;99.90;;;;;;5157007;27;20922;-76
2024/02/12 01:22:46;;;;;;;63.10;42.53;;;8.60;99.90;;;;;;5156919;27;20440;-76
2024/02/12 01:25:14;;;;;;;61.70;42.47;;;8.60;99.90;;;;;;5175545;27;20482;-74
2024/02/12 01:27:43;;;;;;;62.13;41.73;;;8.60;99.90;;;;;;5157481;27;21024;-77
2024/02/12 01:30:13;;;;;;;60.47;42.10;;;8.60;99.90;;;;;;5175888;27;20437;-77
2024/02/12 01:32:42;;;;;;;67.87;42.87;;;8.60;99.90;;;;;;5175771;27;20475;-77
2024/02/12 01:35:12;;;;;;;59.23;40.47;;;8.60;99.90;;;;;;5156986;27;20487;-77
2024/02/12 01:37:41;;;;;;;62.73;42.87;;;8.60;99.90;;;;;;5157001;27;20440;-77
2024/02/12 01:40:11;;;;;;;64.97;43.77;;;8.60;99.90;;;;;;5157015;27;20444;-77
2024/02/12 01:42:39;;;;;;;65.97;42.63;;;8.60;99.90;;;;;;5157212;27;20432;-77
2024/02/12 01:45:23;;;;;;;61.13;41.40;;;8.60;99.90;;;;;;5157199;27;20471;-76
2024/02/12 01:47:58;;;;;;;59.87;40.83;;;8.60;99.90;;;;;;5157033;27;20444;-77
2024/02/12 01:50:28;;;;;;;66.43;44.03;;;8.60;99.90;;;;;;5157006;27;20435;-77
2024/02/12 01:52:56;;;;;;;64.23;44.13;;;8.60;99.90;;;;;;5156875;27;20501;-77
2024/02/12 01:55:26;;;;;;;66.77;43.83;;;8.60;99.90;;;;;;5157219;27;20483;-77
2024/02/12 01:57:55;;;;;;;68.40;42.77;;;8.60;99.90;;;;;;5180061;27;20432;-76
2024/02/12 02:00:25;;;;;;;69.17;43.50;;;8.60;99.90;;;;;;5160781;27;20535;-77
2024/02/12 02:03:03;;;;;;;69.47;42.87;;;8.60;99.90;;;;;;5161744;27;20853;-76
2024/02/12 02:05:32;;;;;;;69.87;43.23;;;8.60;99.90;;;;;;5160923;27;20464;-77
2024/02/12 02:08:00;;;;;;;66.67;44.80;;;8.60;99.90;;;;;;5160715;27;20971;-77
2024/02/12 02:10:29;;;;;;;72.50;43.83;;;8.60;99.90;;;;;;5160890;27;20481;-77
2024/02/12 02:12:59;;;;;;;64.87;44.23;;;8.60;99.90;;;;;;5160667;27;20444;-77
2024/02/12 02:15:28;;;;;;;67.67;43.77;;;8.60;99.90;;;;;;5160765;27;20515;-77
2024/02/12 02:17:56;;;;;;;65.30;44.27;;;8.60;99.90;;;;;;5179285;27;20421;-77
2024/02/12 02:20:26;;;;;;;80.10;45.00;;;8.60;99.90;;;;;;5160559;27;20448;-77
2024/02/12 02:22:54;;;;;;;66.97;46.03;;;8.60;99.90;;;;;;5179214;27;20440;-78
2024/02/12 02:25:24;;;;;;;72.23;45.77;;;8.60;99.90;;;;;;5160244;27;20521;-77
2024/02/12 02:27:52;;;;;;;72.97;46.10;;;8.60;99.90;;;;;;5178969;27;20448;-77
2024/02/12 02:30:21;;;;;;;74.17;46.27;;;8.60;99.90;;;;;;5179041;27;20989;-77
2024/02/12 02:32:50;;;;;;;69.83;46.10;;;8.60;99.90;;;;;;5160185;27;20454;-77
2024/02/12 02:35:18;;;;;;;70.20;46.23;;;8.60;99.90;;;;;;5179031;27;20482;-76
2024/02/12 02:37:47;;;;;;;76.10;46.53;;;8.50;99.90;;;;;;5178872;27;20464;-77
2024/02/12 02:40:15;;;;;;;77.40;46.20;;;8.50;99.90;;;;;;5160335;27;20452;-77
2024/02/12 02:42:47;;;;;;;68.37;45.00;;;8.50;99.90;;;;;;5160022;27;20806;-77
2024/02/12 02:45:15;;;;;;;72.97;43.40;;;8.50;99.90;;;;;;5159798;27;20973;-76
2024/02/12 02:47:44;;;;;;;76.03;46.03;;;8.50;99.90;;;;;;5179050;27;20462;-77
2024/02/12 02:50:12;;;;;;;67.60;43.07;;;8.50;99.90;;;;;;5160596;27;20448;-77
2024/02/12 02:52:41;;;;;;;70.57;43.03;;;8.50;99.90;;;;;;5179234;27;20472;-77
2024/02/12 02:55:11;;;;;;;67.00;42.77;;;8.50;99.90;;;;;;5160755;27;20468;-78
2024/02/12 02:57:40;;;;;;;72.37;41.20;;;8.50;99.90;;;;;;5179483;27;20893;-78
2024/02/12 03:00:12;;;;;;;70.27;44.67;;;8.40;99.90;;;;;;5160244;27;20447;-77
2024/02/12 03:02:42;;;;;;;83.60;48.93;;;8.40;99.90;;;;;;5179175;27;20460;-77
2024/02/12 03:05:14;;;;;;;75.33;45.27;;;8.40;99.90;;;;;;5178842;27;20475;-77
2024/02/12 03:07:45;;;;;;;88.17;47.80;;;8.40;99.90;;;;;;5159829;27;20464;-78
2024/02/12 03:10:14;;;;;;;72.57;42.47;;;8.40;99.90;;;;;;5160021;27;20548;-77
2024/02/12 03:12:43;;;;;;;71.07;44.30;;;8.30;99.90;;;;;;5178235;27;20948;-77
2024/02/12 03:15:14;;;;;;;69.93;42.83;;;8.30;99.90;;;;;;5159402;27;20476;-77
2024/02/12 03:17:43;;;;;;;66.80;42.47;;;8.30;99.90;;;;;;5159496;27;20796;-77
2024/02/12 03:20:13;;;;;;;67.70;42.77;;;8.30;99.90;;;;;;5159427;27;20441;-77
2024/02/12 03:22:42;;;;;;;68.33;43.60;;;8.20;99.90;;;;;;5159624;27;20448;-77
2024/02/12 03:25:12;;;;;;;74.73;45.20;;;8.20;99.90;;;;;;5178114;27;20448;-77
2024/02/12 03:27:42;;;;;;;71.07;43.27;;;8.20;99.90;;;;;;5159318;27;20459;-76
2024/02/12 03:30:11;;;;;;;70.83;43.00;;;8.20;99.90;;;;;;5160074;27;20535;-78
2024/02/12 03:32:42;;;;;;;63.37;40.97;;;8.20;99.90;;;;;;5160810;27;20812;-78
2024/02/12 03:35:10;;;;;;;65.37;39.27;;;8.20;99.90;;;;;;5179503;27;20464;-78
2024/02/12 03:37:40;;;;;;;66.13;40.10;;;8.20;99.90;;;;;;5179015;27;20484;-78
2024/02/12 03:40:12;;;;;;;65.07;40.47;;;8.20;99.90;;;;;;5160336;27;20445;-78
2024/02/12 03:42:41;;;;;;;71.10;41.30;;;8.20;99.90;;;;;;5160400;27;20527;-78
2024/02/12 03:45:11;;;;;;;60.27;40.87;;;8.10;99.90;;;;;;5160065;27;21021;-74
2024/02/12 03:47:41;;;;;;;66.73;41.37;;;8.10;99.90;;;;;;5178998;27;20428;-77
2024/02/12 04:01:21;;;;;;;66.10;41.13;;;8.10;99.90;;;;;;5178001;27;20419;-78
2024/02/12 04:03:51;;;;;;;70.10;41.40;;;8.10;99.90;;;;;;5158415;27;20441;-75
2024/02/12 04:06:19;;;;;;;75.80;42.53;;;8.10;99.90;;;;;;5158175;27;20877;-78
2024/02/12 04:08:50;;;;;;;72.47;43.20;;;8.10;99.90;;;;;;5158863;27;20448;-77
2024/02/12 04:11:18;;;;;;;71.50;43.80;;;8.10;99.90;;;;;;5159718;27;20512;-78
2024/02/12 04:13:49;;;;;;;71.53;42.23;;;8.00;99.90;;;;;;5158409;27;20449;-77
2024/02/12 04:16:18;;;;;;;67.90;39.87;;;8.00;99.90;;;;;;5177116;27;20979;-77
2024/02/12 04:18:47;;;;;;;61.50;40.57;;;8.00;99.90;;;;;;5158502;27;20443;-77
2024/02/12 04:21:19;;;;;;;66.67;40.93;;;8.00;99.90;;;;;;5158315;27;20524;-76
2024/02/12 04:23:49;;;;;;;64.33;39.27;;;8.00;99.90;;;;;;5158620;27;20435;-77
2024/02/12 04:26:18;;;;;;;71.90;40.37;;;8.00;99.90;;;;;;5158151;27;20456;-77
2024/02/12 04:28:48;;;;;;;76.43;43.23;;;8.00;99.90;;;;;;5158667;27;20787;-76
2024/02/12 04:31:17;;;;;;;68.13;40.80;;;8.00;99.90;;;;;;5158500;27;20440;-77
2024/02/12 04:33:46;;;;;;;65.23;40.13;;;8.00;99.90;;;;;;5158177;27;20443;-77
2024/02/12 04:36:17;;;;;;;68.67;39.40;;;8.00;99.90;;;;;;5158017;27;20496;-77
2024/02/12 04:38:45;;;;;;;68.43;38.83;;;8.00;99.90;;;;;;5158235;27;20945;-78
2024/02/12 04:41:13;;;;;;;67.30;40.27;;;7.90;99.90;;;;;;5158044;27;20833;-77
2024/02/12 04:43:42;;;;;;;63.67;39.90;;;7.90;99.90;;;;;;5158034;27;20437;-77
2024/02/12 04:46:11;;;;;;;65.77;39.27;;;7.90;99.90;;;;;;5157983;27;20992;-77
2024/02/12 04:48:40;;;;;;;63.80;42.20;;;7.90;99.90;;;;;;5157927;27;20448;-77
2024/02/12 04:51:11;;;;;;;66.73;40.80;;;7.90;99.90;;;;;;5158181;27;20454;-77
2024/02/12 04:53:42;;;;;;;67.33;39.57;;;7.90;99.90;;;;;;5158072;27;20440;-77
2024/02/12 04:56:10;;;;;;;62.07;38.77;;;7.90;99.90;;;;;;5157778;27;20464;-76
2024/02/12 04:58:39;;;;;;;61.13;39.77;;;7.90;99.90;;;;;;5157735;27;20447;-77
2024/02/12 05:01:07;;;;;;;68.33;39.90;;;7.80;99.90;;;;;;5157850;27;20456;-76
2024/02/12 05:03:37;;;;;;;68.60;40.33;;;7.80;99.90;;;;;;5157777;27;20447;-77
2024/02/12 05:06:06;;;;;;;61.50;38.97;;;7.80;99.90;;;;;;5157735;27;20468;-77
2024/02/12 05:08:35;;;;;;;65.73;39.40;;;7.80;99.90;;;;;;5157636;27;20448;-77
2024/02/12 05:11:05;;;;;;;59.20;38.33;;;7.80;99.90;;;;;;5157701;27;20489;-77
2024/02/12 05:13:33;;;;;;;67.17;40.50;;;7.80;99.90;;;;;;5157476;27;20500;-76
2024/02/12 05:16:04;;;;;;;63.27;37.93;;;7.80;99.90;;;;;;5176157;27;20968;-76
2024/02/12 05:24:03;;;;;;;59.47;36.37;;;7.80;99.90;;;;;;5157940;27;20528;-77
2024/02/12 05:26:33;;;;;;;69.20;39.53;;;7.80;99.90;;;;;;5177709;27;20448;-78
2024/02/12 05:29:01;;;;;;;60.43;39.07;;;7.70;99.90;;;;;;5157428;27;20464;-77
2024/02/12 05:31:29;;;;;;;57.60;37.40;;;7.70;99.90;;;;;;5159558;27;20455;-77
2024/02/12 05:33:58;;;;;;;58.30;37.57;;;7.70;99.90;;;;;;5161427;27;20491;-77
2024/02/12 05:36:27;;;;;;;60.73;37.57;;;7.70;99.90;;;;;;5161805;27;20483;-77
2024/02/12 05:38:55;;;;;;;59.10;37.97;;;7.70;99.90;;;;;;5180063;27;20782;-77
2024/02/12 05:41:23;;;;;;;64.83;38.80;;;7.70;99.90;;;;;;5161464;27;20901;-77
2024/02/12 05:43:53;;;;;;;58.50;36.97;;;7.60;99.90;;;;;;5161206;27;20497;-77
2024/02/12 05:46:22;;;;;;;57.00;36.00;;;7.60;99.90;;;;;;5179766;27;20492;-76
2024/02/12 05:48:50;;;;;;;60.77;38.60;;;7.60;99.90;;;;;;5179917;27;20947;-77
2024/02/12 05:51:18;;;;;;;57.37;37.77;;;7.60;99.90;;;;;;5179731;27;20466;-77
2024/02/12 05:53:48;;;;;;;66.63;40.37;;;7.60;99.90;;;;;;5161018;27;20516;-77
2024/02/12 05:56:16;;;;;;;57.33;38.07;;;7.60;99.90;;;;;;5160659;27;20475;-77
2024/02/12 05:58:45;;;;;;;61.70;36.60;;;7.60;99.90;;;;;;5161583;27;20554;-78
2024/02/12 06:01:15;;;;;;;59.50;38.67;;;7.50;99.90;;;;;;5161756;27;20831;-78
2024/02/12 06:03:43;;;;;;;58.10;38.70;;;7.50;99.90;;;;;;5161947;27;20806;-77
2024/02/12 06:06:12;;;;;;;55.47;35.73;;;7.50;99.90;;;;;;5161533;27;20468;-77
2024/02/12 06:08:41;;;;;;;53.87;36.10;;;7.50;99.90;;;;;;5160836;27;20440;-76
2024/02/12 06:11:09;;;;;;;62.47;36.73;;;7.50;99.90;;;;;;5179351;27;20470;-78
2024/02/12 06:13:38;;;;;;;57.13;37.07;;;7.50;99.90;;;;;;5161721;27;20447;-77
2024/02/12 06:16:06;;;;;;;55.93;37.87;;;7.50;99.90;;;;;;5180097;27;20459;-77
2024/02/12 06:18:36;;;;;;;57.27;38.13;;;7.50;99.90;;;;;;5161084;27;20445;-77
2024/02/12 06:21:05;;;;;;;55.60;36.83;;;7.40;99.90;;;;;;5179649;27;20432;-77
2024/02/12 06:23:34;;;;;;;59.00;36.60;;;7.40;99.90;;;;;;5180029;27;20431;-78
2024/02/12 06:26:02;;;;;;;50.83;34.90;;;7.40;99.90;;;;;;5161101;27;20469;-78
2024/02/12 06:28:30;;;;;;;53.80;35.53;;;7.40;99.90;;;;;;5161017;27;20574;-77
2024/02/12 06:30:58;;;;;;;56.60;35.70;;;7.40;99.90;;;;;;5161014;27;20449;-78
2024/02/12 06:33:27;;;;;;;58.70;36.83;;;7.40;99.90;;;;;;5179635;27;20464;-77
2024/02/12 06:36:01;;;;;;;60.90;36.97;;;7.40;99.90;;;;;;5161059;27;20888;-77
2024/02/12 06:38:29;;;;;;;53.73;36.17;;;7.40;99.90;;;;;;5180456;27;20850;-78
2024/02/12 06:40:59;;;;;;;54.40;36.40;;;7.40;99.90;;;;;;5179803;27;20522;-78
2024/02/12 06:43:28;;;;;;;54.27;35.10;;;7.40;99.90;;;;;;5178343;27;20475;-78
2024/02/12 06:45:57;;;;;;;54.53;34.60;;;7.40;99.90;;;;;;5179424;27;20444;-77
2024/02/12 06:48:25;;;;;;;49.87;35.33;;;7.40;99.90;;;;;;5160501;27;20436;-77
2024/02/12 06:50:53;;;;;;;52.20;35.43;;;7.40;99.90;;;;;;5160524;27;20892;-77
2024/02/12 06:53:23;;;;;;;58.30;35.90;;;7.40;99.90;;;;;;5179215;27;20449;-77
2024/02/12 06:55:51;;;;;;;53.17;35.80;;;7.40;99.90;;;;;;5179304;27;20481;-77
2024/02/12 06:58:20;;;;;;;61.93;37.47;;;7.40;99.90;;;;;;5161621;27;20497;-78
2024/02/12 07:00:52;;;;;;;55.73;38.37;;;7.40;99.90;;;;;;5161496;27;20466;-76
2024/02/12 07:03:20;;;;;;;57.93;38.10;;;7.40;99.90;;;;;;5159637;27;20440;-76
2024/02/12 07:05:48;;;;;;;57.20;38.70;;;7.50;99.90;;;;;;5159359;27;20452;-77
2024/02/12 07:08:18;;;;;;;60.60;39.13;;;7.50;99.90;;;;;;5159972;27;20517;-78
2024/02/12 07:10:49;;;;;;;57.27;36.97;;;7.50;99.90;;;;;;5179896;27;20434;-78
2024/02/12 07:13:18;;;;;;;58.60;38.37;;;7.50;99.90;;;;;;5178752;27;20432;-76
2024/02/12 07:15:46;;;;;;;64.73;38.13;;;7.50;99.90;;;;;;5159263;27;20494;-76
2024/02/12 07:18:15;;;;;;;62.83;40.20;;;7.50;99.90;;;;;;5159584;27;20463;-76
2024/02/12 07:20:43;;;;;;;57.47;37.60;;;7.50;99.90;;;;;;5158997;27;20536;-77
2024/02/12 07:23:11;;;;;;;58.20;38.00;;;7.50;99.90;;;;;;5159045;27;20439;-76
2024/02/12 07:25:40;;;;;;;59.03;40.17;;;7.50;99.90;;;;;;5177564;27;20448;-76
2024/02/12 07:28:10;;;;;;;63.30;39.00;;;7.50;99.90;;;;;;5159606;27;20451;-78
2024/02/12 07:30:39;;;;;;;66.07;37.67;;;7.50;99.90;;;;;;5158898;27;20858;-77
2024/02/12 07:33:07;;;;;;;58.33;38.50;;;7.50;99.90;;;;;;5177599;27;20438;-76
2024/02/12 07:35:36;;;;;;;57.33;38.80;;;7.50;99.90;;;;;;5177398;27;20451;-76
2024/02/12 07:38:05;;;;;;;55.50;37.73;;;7.50;99.90;;;;;;5158662;27;20473;-76
2024/02/12 07:40:34;;;;;;;57.63;37.87;;;7.50;99.90;;;;;;5177588;27;20895;-75
2024/02/12 07:43:02;;;;;;;55.87;37.03;;;7.50;99.90;;;;;;5158900;27;20455;-77
2024/02/12 07:45:33;;;;;;;59.13;37.53;;;7.50;99.90;;;;;;5158770;27;20467;-77
2024/02/12 07:48:02;;;;;;;54.57;36.67;;;7.50;99.90;;;;;;5160151;27;21029;-78
2024/02/12 07:50:31;;;;;;;57.13;39.63;;;7.50;99.90;;;;;;5159881;27;20472;-78
2024/02/12 07:52:59;;;;;;;56.07;38.50;;;7.60;99.90;;;;;;5160354;27;20555;-78
2024/02/12 07:55:28;;;;;;;60.93;38.90;;;7.50;99.90;;;;;;5159266;27;20470;-77
2024/02/12 07:57:57;;;;;;;58.73;39.13;;;7.50;99.90;;;;;;5158576;27;20995;-77
2024/02/12 08:00:25;;;;;;;57.67;37.60;;;7.50;99.90;;;;;;5158674;27;20477;-76
2024/02/12 08:02:55;;;;;;;58.47;39.23;;;7.60;99.90;;;;;;5158716;27;20448;-77
2024/02/12 08:05:23;;;;;;;59.20;39.03;;;7.60;99.90;;;;;;5177514;27;20797;-77
2024/02/12 08:07:51;;;;;;;59.37;39.27;;;7.60;99.90;;;;;;5158495;27;20444;-76
2024/02/12 08:10:31;;;;;;;65.17;39.97;;;7.60;99.90;;;;;;5158613;27;20432;-76
2024/02/12 08:12:59;;;;;;;61.93;41.17;;;7.60;99.90;;;;;;5158235;27;20443;-77
2024/02/12 08:15:28;;;;;;;62.13;39.10;;;7.50;99.90;;;;;;5158557;27;20836;-76
2024/02/12 08:17:58;;;;;;;58.10;39.47;;;7.60;99.90;;;;;;5158026;27;20467;-77
2024/02/12 08:20:26;;;;;;;62.00;40.07;;;7.60;99.90;;;;;;5177125;27;20436;-78
2024/02/12 08:22:55;;;;;;;57.83;38.03;;;7.60;99.90;;;;;;5157961;27;20450;-78
2024/02/12 08:25:25;;;;;;;62.77;38.30;;;7.60;99.90;;;;;;5158546;27;20460;-76
2024/02/12 08:27:55;;;;;;;58.83;39.90;;;7.60;99.90;;;;;;5159226;27;20585;-78
2024/02/12 08:30:23;;;;;;;57.80;39.87;;;7.60;99.90;;;;;;5158191;27;20443;-77
2024/02/12 08:32:52;;;;;;;66.83;40.60;;;7.60;99.90;;;;;;5158739;27;20440;-77
2024/02/12 08:35:22;;;;;;;56.50;40.53;;;7.60;99.90;;;;;;5158396;27;20533;-77
2024/02/12 08:37:51;;;;;;;61.07;39.80;;;7.70;99.90;;;;;;5157719;27;21015;-77
2024/02/12 08:40:20;;;;;;;67.10;41.10;;;7.70;99.90;;;;;;5158158;27;21040;-77
2024/02/12 08:42:50;;;;;;;61.83;42.03;;;7.70;99.90;;;;;;5157923;27;20452;-77
2024/02/12 08:45:18;;;;;;;57.53;39.37;;;7.70;99.90;;;;;;5176860;27;20470;-76
2024/02/12 08:47:47;;;;;;;61.80;40.33;;;7.70;99.90;;;;;;5157703;27;20446;-76
2024/02/12 08:50:16;;;;;;;68.53;40.67;;;7.80;99.90;;;;;;5158141;27;20475;-77
2024/02/12 08:52:46;;;;;;;62.77;41.27;;;7.80;99.90;;;;;;5157658;27;20459;-77
2024/02/12 08:55:16;;;;;;;63.73;42.30;;;7.80;99.90;;;;;;5176263;27;20462;-77
2024/02/12 08:57:45;;;;;;;58.57;40.03;;;7.80;99.90;;;;;;5176178;27;20447;-77
2024/02/12 09:00:18;;;;;;;72.37;44.60;;;7.80;99.90;;;;;;5157706;27;20434;-77
2024/02/12 09:02:46;;;;;;;60.67;41.43;;;7.80;99.90;;;;;;5176130;27;20491;-76
2024/02/12 09:05:15;;;;;;;60.47;42.80;;;7.90;99.90;;;;;;5156469;27;20517;-77
2024/02/12 09:07:43;;;;;;;62.57;42.83;;;7.90;99.90;;;;;;5157641;27;20442;-76
2024/02/12 09:10:13;;;;;;;57.83;41.20;;;7.90;99.90;;;;;;5157509;27;20447;-77
2024/02/12 09:12:42;;;;;;;61.20;42.27;;;8.00;99.90;;;;;;5157516;27;20451;-77
2024/02/12 09:15:21;;;;;;;62.10;43.30;;;8.00;99.90;;;;;;5176184;27;20448;-77
2024/02/12 09:17:51;;;;;;;64.23;42.60;;;8.00;99.90;;;;;;5157763;27;20447;-77
2024/02/12 09:20:20;;;;;;;56.57;40.87;;;8.00;99.90;;;;;;5157659;27;20492;-77
2024/02/12 09:22:49;;;;;;;55.53;39.80;;;8.00;99.90;;;;;;5157661;27;20458;-76
2024/02/12 09:25:18;;;;;;;55.77;40.47;;;8.00;99.90;;;;;;5157437;27;20499;-77
2024/02/12 09:27:50;;;;;;;60.53;41.67;;;8.10;99.90;;;;;;5176389;27;20447;-77
2024/02/12 09:30:18;;;;;;;60.00;43.20;;;8.10;99.90;;;;;;5157725;27;20441;-77
2024/02/12 09:32:47;;;;;;;50.50;39.30;;;8.10;99.90;;;;;;5157615;27;20446;-77
2024/02/12 09:35:17;;;;;;;56.70;40.70;;;8.10;99.90;;;;;;5176167;27;20462;-77
2024/02/12 09:37:49;;;;;;;57.90;42.10;;;8.10;99.90;;;;;;5157727;27;20448;-77
2024/02/12 09:40:23;;;;;;;52.10;38.97;;;8.10;99.90;;;;;;5176088;27;20628;-77
2024/02/12 09:42:54;;;;;;;55.63;39.73;;;8.10;99.90;;;;;;5157397;27;20491;-77
2024/02/12 09:45:25;;;;;;;51.10;39.83;;;8.10;99.90;;;;;;5157367;27;20465;-78
2024/02/12 09:47:55;;;;;;;55.07;41.27;;;8.20;99.90;;;;;;5176589;27;20413;-77
2024/02/12 09:50:25;;;;;;;60.83;41.27;;;8.20;99.90;;;;;;5176258;27;20424;-77
2024/02/12 09:52:56;;;;;;;50.07;39.37;;;8.20;99.90;;;;;;5176142;27;20442;-77
2024/02/12 09:55:26;;;;;;;54.33;39.70;;;8.20;99.90;;;;;;5157236;27;20988;-77
2024/02/12 09:57:55;;;;;;;56.80;40.37;;;8.20;99.90;;;;;;5157280;27;20459;-77
2024/02/12 10:00:23;;;;;;;57.57;41.53;;;8.20;99.90;;;;;;5176014;27;21001;-77
2024/02/12 10:02:53;;;;;;;52.50;40.67;;;8.30;99.90;;;;;;5176276;27;20518;-78
2024/02/12 10:05:23;;;;;;;52.00;40.30;;;8.30;99.90;;;;;;5157069;27;20488;-77
2024/02/12 10:07:52;;;;;;;50.67;40.00;;;8.30;99.90;;;;;;5157060;27;20909;-77
2024/02/12 10:10:20;;;;;;;53.53;40.97;;;8.30;99.90;;;;;;5157120;27;20441;-77
2024/02/12 10:12:54;;;;;;;53.80;41.30;;;8.30;99.90;;;;;;5156739;27;20448;-77
2024/02/12 10:15:23;;;;;;;54.47;40.57;;;8.40;99.90;;;;;;5157645;27;20460;-77
2024/02/12 10:17:55;;;;;;;51.30;41.40;;;8.40;99.90;;;;;;5159645;27;20488;-77
2024/02/12 10:20:24;;;;;;;53.30;41.93;;;8.40;99.90;;;;;;5160685;27;20459;-77
2024/02/12 10:22:53;;;;;;;50.67;39.87;;;8.40;99.90;;;;;;5179481;27;20439;-77
2024/02/12 10:25:22;;;;;;;49.90;40.40;;;8.40;99.90;;;;;;5160966;27;20848;-77
2024/02/12 10:27:50;;;;;;;53.97;42.33;;;8.40;99.90;;;;;;5179568;27;20448;-76
2024/02/12 10:30:21;;;;;;;49.10;39.10;;;8.40;99.90;;;;;;5160964;27;20953;-77
2024/02/12 10:32:50;;;;;;;53.20;40.67;;;8.40;99.90;;;;;;5160647;27;20444;-77
2024/02/12 10:35:22;;;;;;;57.40;42.67;;;8.50;99.90;;;;;;5160539;27;20468;-77
2024/02/12 10:37:53;;;;;;;49.47;39.20;;;8.50;99.90;;;;;;5179034;27;20409;-77
2024/02/12 10:40:29;;;;;;;50.60;39.80;;;8.50;99.90;;;;;;5160600;27;20491;-77
2024/02/12 10:43:03;;;;;;;55.57;39.03;;;8.50;99.90;;;;;;5160151;27;20435;-76
2024/02/12 10:45:34;;;;;;;48.00;39.50;;;8.50;99.90;;;;;;5160227;27;20463;-77
2024/02/12 10:48:04;;;;;;;54.37;40.53;;;8.50;99.90;;;;;;5160244;27;20485;-77
2024/02/12 10:50:36;;;;;;;49.43;40.43;;;8.60;99.90;;;;;;5179203;27;20429;-77
2024/02/12 10:53:06;;;;;;;51.07;40.13;;;8.60;99.90;;;;;;5160187;27;20437;-76
2024/02/12 10:55:37;;;;;;;52.30;41.53;;;8.60;99.90;;;;;;5160003;27;20479;-77
2024/02/12 10:58:07;;;;;;;51.63;39.70;;;8.60;99.90;;;;;;5159873;27;20433;-77
2024/02/12 11:00:39;;;;;;;48.47;38.70;;;8.60;99.90;;;;;;5178419;27;20467;-77
2024/02/12 11:03:16;;;;;;;51.33;39.77;;;8.60;99.90;;;;;;5179285;27;20425;-76
2024/02/12 11:05:45;;;;;;;50.90;40.07;;;8.70;99.90;;;;;;5160012;27;20530;-76
2024/02/12 11:08:18;;;;;;;52.60;40.50;;;8.70;99.90;;;;;;5178297;27;20421;-76
2024/02/12 11:10:50;;;;;;;49.67;38.30;;;8.70;99.90;;;;;;5159581;27;20436;-77
2024/02/12 11:13:21;;;;;;;42.73;37.57;;;8.80;99.90;;;;;;5159461;27;20535;-77
2024/02/12 11:15:52;;;;;;;49.70;38.77;;;8.80;99.90;;;;;;5159598;27;20471;-77
2024/02/12 11:18:22;;;;;;;46.73;37.13;;;8.80;99.90;;;;;;5159544;27;20489;-77
2024/02/12 11:20:52;;;;;;;48.13;39.30;;;8.80;99.90;;;;;;5159279;27;20461;-78
2024/02/12 11:23:21;;;;;;;49.53;38.97;;;8.80;99.90;;;;;;5159556;27;20535;-77
2024/02/12 11:25:50;;;;;;;48.50;38.17;;;8.80;99.90;;;;;;5159251;27;20516;-77
2024/02/12 11:28:24;;;;;;;43.80;37.13;;;8.80;99.90;;;;;;5158290;27;20448;-77
2024/02/12 11:30:55;;;;;;;43.30;36.43;;;8.80;99.90;;;;;;5160448;27;20457;-77
2024/02/12 11:33:25;;;;;;;45.97;37.70;;;8.80;99.90;;;;;;5159100;27;20444;-77
2024/02/12 11:36:08;;;;;;;41.90;36.50;;;8.80;99.90;;;;;;5159062;27;20801;-77
2024/02/12 11:38:49;;;;;;;44.27;36.43;;;8.80;99.90;;;;;;5178222;27;20527;-77
2024/02/12 11:41:17;;;;;;;44.43;36.97;;;8.80;99.90;;;;;;5158920;27;20500;-77
2024/02/12 11:43:48;;;;;;;46.23;35.43;;;8.80;99.90;;;;;;5158887;27;20807;-76
2024/02/12 11:46:18;;;;;;;45.90;36.80;;;8.80;99.90;;;;;;5158981;27;20500;-77
2024/02/12 11:48:47;;;;;;;44.60;36.40;;;8.80;99.90;;;;;;5158873;27;20433;-76
2024/02/12 11:51:20;;;;;;;45.37;37.77;;;8.80;99.90;;;;;;5159122;27;20437;-76
2024/02/12 11:53:51;;;;;;;44.47;35.43;;;8.80;99.90;;;;;;5158804;27;20436;-77
2024/02/12 11:56:21;;;;;;;40.60;35.30;;;8.90;99.90;;;;;;5158518;27;20484;-76
2024/02/12 11:58:54;;;;;;;44.60;37.50;;;9.00;99.90;;;;;;5158706;27;20452;-77
2024/02/12 12:01:27;;;;;;;42.27;37.20;;;9.10;99.90;;;;;;5158569;27;20510;-77
2024/02/12 12:03:55;;;;;;;39.63;32.93;;;9.20;99.90;;;;;;5158688;27;20436;-76
2024/02/12 12:06:25;;;;;;;39.43;33.70;;;9.30;99.90;;;;;;5177224;27;20474;-77
2024/02/12 12:08:53;;;;;;;36.10;32.30;;;9.30;99.90;;;;;;5177374;27;20436;-77
2024/02/12 12:11:22;;;;;;;36.10;30.27;;;9.30;99.90;;;;;;5160784;27;20517;-78
2024/02/12 12:13:59;;;;;;;33.23;29.60;;;9.30;99.90;;;;;;5182780;27;20439;-78
2024/02/12 12:16:30;;;;;;;32.10;28.10;;;9.30;99.90;;;;;;5163675;27;20513;-78
2024/02/12 12:19:01;;;;;;;32.13;27.97;;;9.30;99.90;;;;;;5163244;27;20436;-77
2024/02/12 12:21:31;;;;;;;30.33;27.20;;;9.30;99.90;;;;;;5166948;27;20557;-78
2024/02/12 12:24:00;;;;;;;31.30;28.07;;;9.40;99.90;;;;;;5161187;27;20486;-78
2024/02/12 12:26:29;;;;;;;29.73;26.63;;;9.40;99.90;;;;;;5158345;27;20461;-77
2024/02/12 12:28:59;;;;;;;29.57;26.50;;;9.50;99.90;;;;;;5158582;27;20437;-77
2024/02/12 12:31:32;;;;;;;27.27;24.20;;;9.50;99.90;;;;;;5177425;27;20440;-78
2024/02/12 12:34:01;;;;;;;29.40;26.60;;;9.50;99.90;;;;;;5158546;27;20926;-78
2024/02/12 12:36:30;;;;;;;28.40;25.37;;;9.50;99.90;;;;;;5158473;27;20465;-77
2024/02/12 12:39:00;;;;;;;37.40;26.13;;;9.50;99.90;;;;;;5158695;27;20525;-78
2024/02/12 12:41:30;;;;;;;28.40;25.10;;;9.50;99.90;;;;;;5158258;27;20497;-77
2024/02/12 12:43:59;;;;;;;29.63;26.37;;;9.50;99.90;;;;;;5158189;27;20429;-78
2024/02/12 12:46:27;;;;;;;27.87;24.37;;;9.50;99.90;;;;;;5158486;27;20469;-77
2024/02/12 12:48:58;;;;;;;27.40;22.33;;;9.50;99.90;;;;;;5158766;27;20498;-78
2024/02/12 12:51:26;;;;;;;8.40;7.50;;;9.40;99.90;;;;;;5160008;27;20440;-78
2024/02/12 12:53:54;;;;;;;8.60;7.80;;;9.30;99.90;;;;;;5161331;27;20472;-80
2024/02/12 12:56:22;;;;;;;7.13;6.40;;;9.20;99.90;;;;;;5160018;27;20469;-80
2024/02/12 12:58:51;;;;;;;7.20;6.50;;;9.10;99.90;;;;;;5160534;27;20444;-79
2024/02/12 13:01:19;;;;;;;6.80;5.73;;;9.00;99.90;;;;;;5160243;27;20992;-79
2024/02/12 13:03:49;;;;;;;7.60;6.23;;;8.90;99.90;;;;;;5179283;27;20449;-80
2024/02/12 13:06:19;;;;;;;8.03;7.33;;;8.90;99.90;;;;;;5160368;27;20468;-78